createdAt,value
2023-01-15T00:00:00.515Z,36.40
2023-01-15T00:05:03.757Z,44.73
2023-01-15T00:10:07.451Z,38.20
2023-01-15T00:15:12.524Z,36.20
2023-01-15T00:20:16.910Z,34.87
2023-01-15T00:25:38.878Z,38.67
2023-01-15T00:30:43.050Z,39.45
2023-01-15T00:35:46.027Z,34.67
2023-01-15T00:40:52.963Z,42.03
2023-01-15T00:45:55.883Z,35.37
2023-01-15T00:50:58.789Z,36.37
2023-01-15T00:56:01.648Z,37.23
2023-01-15T01:01:04.697Z,29.70
2023-01-15T01:06:10.219Z,34.07
2023-01-15T01:11:19.745Z,35.27
2023-01-15T01:16:26.108Z,37.30
2023-01-15T01:21:30.071Z,36.07
2023-01-15T01:26:33.023Z,37.23
2023-01-15T01:31:36.089Z,33.63
2023-01-15T01:36:42.139Z,35.80
2023-01-15T01:41:47.526Z,35.07
2023-01-15T01:46:50.476Z,33.47
2023-01-15T01:52:16.719Z,32.53
2023-01-15T01:57:21.391Z,30.67
2023-01-15T02:02:24.377Z,30.73
2023-01-15T02:07:27.485Z,33.60
2023-01-15T02:12:38.094Z,26.43
2023-01-15T02:18:29.038Z,28.10
2023-01-15T02:24:06.911Z,30.70
2023-01-15T02:29:18.139Z,26.57
2023-01-15T02:34:29.708Z,25.15
2023-01-15T02:39:36.151Z,24.03
2023-01-15T02:44:47.091Z,28.23
2023-01-15T02:49:51.940Z,24.13
2023-01-15T02:55:12.872Z,27.87
2023-01-15T03:00:19.384Z,29.03
2023-01-15T03:05:31.761Z,27.60
2023-01-15T03:11:13.854Z,23.43
2023-01-15T03:16:40.354Z,26.13
2023-01-15T03:22:03.064Z,28.60
2023-01-15T03:27:07.007Z,30.47
2023-01-15T03:32:10.612Z,26.10
2023-01-15T03:37:14.198Z,29.77
2023-01-15T03:42:44.610Z,24.50
2023-01-15T03:48:21.626Z,22.50
2023-01-15T03:53:29.682Z,24.60
2023-01-15T03:58:53.731Z,26.50
2023-01-15T04:03:57.983Z,28.57
2023-01-15T04:09:03.255Z,21.73
2023-01-15T04:14:06.911Z,20.00
2023-01-15T04:19:09.959Z,23.33
2023-01-15T04:24:12.832Z,25.37
2023-01-15T04:29:15.844Z,25.53
2023-01-15T04:34:19.833Z,24.07
2023-01-15T04:39:23.134Z,23.80
2023-01-15T04:44:27.772Z,26.50
2023-01-15T04:49:30.969Z,19.93
2023-01-15T04:54:33.845Z,24.40
2023-01-15T04:59:36.743Z,23.60
2023-01-15T05:04:39.641Z,23.23
2023-01-15T05:09:42.887Z,21.17
2023-01-15T05:14:46.316Z,27.40
2023-01-15T05:19:49.237Z,22.83
2023-01-15T05:24:52.210Z,25.17
2023-01-15T05:29:55.072Z,24.57
2023-01-15T05:34:57.834Z,24.93
2023-01-15T05:40:00.794Z,24.63
2023-01-15T05:45:04.456Z,19.13
2023-01-15T05:50:07.844Z,21.67
2023-01-15T05:55:10.769Z,21.43
2023-01-15T06:00:14.784Z,26.23
2023-01-15T06:05:21.141Z,21.83
2023-01-15T06:10:23.997Z,23.70
2023-01-15T06:15:27.054Z,23.63
2023-01-15T06:20:30.277Z,29.10
2023-01-15T06:25:37.473Z,22.80
2023-01-15T06:30:40.749Z,26.80
2023-01-15T06:35:43.450Z,24.13
2023-01-15T06:40:46.489Z,23.97
2023-01-15T06:46:08.426Z,23.60
2023-01-15T06:51:15.277Z,25.10
2023-01-15T06:56:18.073Z,19.97
2023-01-15T07:01:20.980Z,18.97
2023-01-15T07:06:26.396Z,23.40
2023-01-15T07:11:29.478Z,34.70
2023-01-15T07:16:37.534Z,26.87
2023-01-15T07:21:41.367Z,29.80
2023-01-15T07:26:45.777Z,29.23
2023-01-15T07:31:49.674Z,36.63
2023-01-15T07:36:52.615Z,23.10
2023-01-15T07:42:15.374Z,24.70
2023-01-15T07:47:43.521Z,20.77
2023-01-15T07:52:46.804Z,18.80
2023-01-15T07:57:49.598Z,22.07
2023-01-15T08:02:52.487Z,19.60
2023-01-15T08:07:55.409Z,19.60
2023-01-15T08:13:16.611Z,24.90
2023-01-15T08:18:19.878Z,23.10
2023-01-15T08:23:22.733Z,37.10
2023-01-15T08:28:25.691Z,43.07
2023-01-15T08:33:28.617Z,24.13
2023-01-15T08:38:31.521Z,68.03
2023-01-15T08:43:34.423Z,57.53
2023-01-15T08:48:37.519Z,61.60
2023-01-15T08:53:40.881Z,55.00
2023-01-15T08:58:47.210Z,39.30
2023-01-15T09:03:50.265Z,28.83
2023-01-15T09:08:53.469Z,27.07
2023-01-15T09:13:56.408Z,26.40
2023-01-15T09:18:59.852Z,145.93
2023-01-15T09:24:03.075Z,29.80
2023-01-15T09:29:08.768Z,35.67
2023-01-15T09:34:11.765Z,35.33
2023-01-15T09:39:14.653Z,35.33
2023-01-15T09:44:58.210Z,24.27
2023-01-15T09:50:35.014Z,21.77
2023-01-15T09:55:47.911Z,21.30
2023-01-15T10:00:52.412Z,15.23
2023-01-15T10:06:10.339Z,21.70
2023-01-15T10:11:16.402Z,18.40
2023-01-15T10:16:29.390Z,15.97
2023-01-15T10:21:58.260Z,15.50
2023-01-15T11:31:22.412Z,12.43
2023-01-15T11:36:29.024Z,9.03
2023-01-15T11:41:53.592Z,10.47
2023-01-15T11:47:15.442Z,9.00
2023-01-15T11:57:33.933Z,13.57
2023-01-15T12:02:43.413Z,10.75
2023-01-15T12:07:48.415Z,14.30
2023-01-15T12:13:54.955Z,12.90
2023-01-15T12:20:02.973Z,12.07
2023-01-15T12:25:19.891Z,14.23
2023-01-15T12:30:42.405Z,13.90
2023-01-15T12:35:56.943Z,11.60
2023-01-15T12:41:10.215Z,19.60
2023-01-15T12:46:24.850Z,41.97
2023-01-15T12:51:54.140Z,29.90
2023-01-15T12:57:18.197Z,19.17
2023-01-15T13:02:28.790Z,20.10
2023-01-15T13:07:49.447Z,14.53
2023-01-15T13:12:55.503Z,17.67
2023-01-15T13:18:35.421Z,14.77
2023-01-15T13:24:07.528Z,20.00
2023-01-15T13:34:49.644Z,16.87
2023-01-15T13:40:23.066Z,19.60
2023-01-15T13:45:40.410Z,22.30
2023-01-15T13:50:59.325Z,18.97
2023-01-15T13:56:15.105Z,20.33
2023-01-15T14:01:18.094Z,24.70
2023-01-15T14:06:21.056Z,21.50
2023-01-15T14:11:35.971Z,43.37
2023-01-15T14:17:08.728Z,28.00
2023-01-15T14:22:45.092Z,17.20
2023-01-15T14:28:06.111Z,18.67
2023-01-15T14:33:38.027Z,22.20
2023-01-15T14:38:57.056Z,23.17
2023-01-15T14:44:03.550Z,20.40
2023-01-15T14:49:28.379Z,22.97
2023-01-15T14:54:32.562Z,23.63
2023-01-15T14:59:56.583Z,23.87
2023-01-15T15:05:01.823Z,20.53
2023-01-15T15:10:26.999Z,22.27
2023-01-15T15:15:54.534Z,22.70
2023-01-15T15:21:06.817Z,32.20
2023-01-15T15:26:32.785Z,37.50
2023-01-15T15:32:01.720Z,37.67
2023-01-15T15:37:23.252Z,35.63
2023-01-15T15:42:58.283Z,32.20
2023-01-15T15:48:42.332Z,29.37
2023-01-15T15:53:45.254Z,30.43
2023-01-15T15:58:49.067Z,29.17
2023-01-15T16:03:51.917Z,34.07
2023-01-15T16:09:04.931Z,21.03
2023-01-15T16:14:12.556Z,32.30
2023-01-15T16:19:25.647Z,42.20
2023-01-15T16:24:29.785Z,39.27
2023-01-15T16:29:35.217Z,46.43
2023-01-15T16:34:38.655Z,36.23
2023-01-15T16:39:46.526Z,35.07
2023-01-15T16:45:25.095Z,39.43
2023-01-15T16:50:32.529Z,27.20
2023-01-15T16:55:40.378Z,41.87
2023-01-15T17:00:50.995Z,38.83
2023-01-15T17:06:03.636Z,30.27
2023-01-15T17:11:24.483Z,38.63
2023-01-15T17:16:27.267Z,34.53
2023-01-15T17:21:30.268Z,37.83
2023-01-15T17:26:33.707Z,41.53
2023-01-15T17:31:36.671Z,38.50
2023-01-15T17:36:40.162Z,42.37
2023-01-15T17:41:43.147Z,46.60
2023-01-15T17:46:46.690Z,44.60
2023-01-15T17:51:50.309Z,39.40
2023-01-15T17:57:11.875Z,48.07
2023-01-15T18:02:34.770Z,40.60
2023-01-15T18:07:42.247Z,40.33
2023-01-15T18:12:45.522Z,48.70
2023-01-15T18:17:48.650Z,38.10
2023-01-15T18:22:52.011Z,51.17
2023-01-15T18:27:55.070Z,61.97
2023-01-15T18:32:58.805Z,52.03
2023-01-15T18:38:02.257Z,55.57
2023-01-15T18:43:23.415Z,55.10
2023-01-15T18:48:26.209Z,53.23
2023-01-15T18:53:29.150Z,51.30
2023-01-15T18:58:32.071Z,41.37
2023-01-15T19:03:34.951Z,46.67
2023-01-15T19:08:38.146Z,52.17
2023-01-15T19:13:41.056Z,55.87
2023-01-15T19:18:53.408Z,57.93
2023-01-15T19:23:56.488Z,54.87
2023-01-15T19:28:59.503Z,77.67
2023-01-15T19:34:32.186Z,65.80
2023-01-15T19:39:30.781Z,55.30
2023-01-15T19:44:53.387Z,65.43
2023-01-15T19:50:18.192Z,61.70
2023-01-15T19:55:24.048Z,51.20
2023-01-15T20:00:28.888Z,57.33
2023-01-15T20:05:33.061Z,55.30
2023-01-15T20:10:38.590Z,56.47
2023-01-15T20:15:45.536Z,58.67
2023-01-15T20:20:49.342Z,64.23
2023-01-15T20:25:53.437Z,67.13
2023-01-15T20:30:57.649Z,60.93
2023-01-15T20:36:05.590Z,64.00
2023-01-15T20:41:29.444Z,59.23
2023-01-15T20:46:32.322Z,49.80
2023-01-15T20:51:35.100Z,48.27
2023-01-15T20:56:37.877Z,40.77
2023-01-15T21:01:41.681Z,62.67
2023-01-15T21:06:44.967Z,57.50
2023-01-15T21:11:48.015Z,54.17
2023-01-15T21:16:51.793Z,70.53
2023-01-15T21:21:54.866Z,76.73
2023-01-15T21:26:57.757Z,61.47
2023-01-15T21:32:00.740Z,50.50
2023-01-15T21:37:03.661Z,38.53
2023-01-15T21:42:24.951Z,35.70
2023-01-15T21:47:27.942Z,34.47
2023-01-15T21:52:33.586Z,38.60
2023-01-15T21:57:36.627Z,29.50
2023-01-15T22:02:39.445Z,39.57
2023-01-15T22:07:42.507Z,42.60
2023-01-15T22:12:45.695Z,56.07
2023-01-15T22:17:54.291Z,60.03
2023-01-15T22:22:57.229Z,66.37
2023-01-15T22:28:00.160Z,85.77
2023-01-15T22:33:03.252Z,74.70
2023-01-15T22:38:06.351Z,90.77
2023-01-15T22:43:09.284Z,80.07
2023-01-15T22:48:12.354Z,83.77
2023-01-15T22:53:15.558Z,65.80
2023-01-15T22:58:21.815Z,70.50
2023-01-15T23:03:24.904Z,71.40
2023-01-15T23:08:32.203Z,67.33
2023-01-15T23:13:35.241Z,69.20
2023-01-15T23:18:38.260Z,66.93
2023-01-15T23:23:41.506Z,62.80
2023-01-15T23:28:44.927Z,54.87
2023-01-15T23:33:47.859Z,47.70
2023-01-15T23:38:50.934Z,41.60
2023-01-15T23:44:12.707Z,46.60
2023-01-15T23:49:18.684Z,51.92
2023-01-15T23:54:25.461Z,64.57
2023-01-15T23:59:29.436Z,54.77
